createdAt,value
2023-04-25T00:02:41.449Z,12.54
2023-04-25T00:05:28.026Z,12.86
2023-04-25T00:08:13.474Z,11.94
2023-04-25T00:10:59.842Z,12.31
2023-04-25T00:13:47.741Z,12.68
2023-04-25T00:16:35.948Z,12.66
2023-04-25T00:19:21.864Z,12.74
2023-04-25T00:22:07.307Z,11.44
2023-04-25T00:24:54.357Z,12.24
2023-04-25T00:27:40.318Z,12.45
2023-04-25T00:30:25.920Z,11.51
2023-04-25T00:33:11.356Z,11.71
2023-04-25T00:35:57.238Z,11.31
2023-04-25T00:38:42.514Z,11.90
2023-04-25T00:41:28.258Z,12.63
2023-04-25T00:44:17.905Z,12.09
2023-04-25T00:47:04.626Z,12.64
2023-04-25T00:49:50.368Z,11.59
2023-04-25T00:52:36.361Z,11.64
2023-04-25T00:55:22.107Z,12.38
2023-04-25T00:58:07.685Z,12.37
2023-04-25T01:00:53.739Z,12.09
2023-04-25T01:03:43.874Z,11.58
2023-04-25T01:06:29.652Z,11.31
2023-04-25T01:09:15.065Z,11.75
2023-04-25T01:12:01.082Z,11.11
2023-04-25T01:14:47.485Z,12.45
2023-04-25T01:17:35.035Z,12.38
2023-04-25T01:20:23.952Z,11.98
2023-04-25T01:23:10.382Z,11.85
2023-04-25T01:25:56.133Z,10.79
2023-04-25T01:28:42.440Z,11.80
2023-04-25T01:31:29.835Z,10.58
2023-04-25T01:34:15.273Z,11.55
2023-04-25T01:37:02.715Z,11.60
2023-04-25T01:39:49.773Z,11.63
2023-04-25T01:42:36.702Z,10.78
2023-04-25T01:45:22.236Z,11.78
2023-04-25T01:48:09.600Z,11.99
2023-04-25T01:50:55.626Z,12.12
2023-04-25T01:53:41.157Z,12.10
2023-04-25T01:56:31.652Z,11.93
2023-04-25T01:59:17.012Z,12.18
2023-04-25T02:02:31.632Z,11.91
2023-04-25T02:05:19.031Z,12.17
2023-04-25T02:08:07.161Z,11.25
2023-04-25T02:10:52.707Z,12.13
2023-04-25T02:13:38.740Z,12.25
2023-04-25T02:16:49.458Z,11.70
2023-04-25T02:19:35.526Z,11.36
2023-04-25T02:22:21.884Z,11.08
2023-04-25T02:25:07.617Z,12.20
2023-04-25T02:27:54.874Z,10.96
2023-04-25T02:30:40.597Z,11.45
2023-04-25T02:33:26.008Z,11.14
2023-04-25T02:36:11.594Z,11.52
2023-04-25T02:38:57.183Z,10.44
2023-04-25T02:41:42.586Z,10.22
2023-04-25T02:44:27.970Z,11.26
2023-04-25T02:47:13.421Z,9.97
2023-04-25T02:49:58.780Z,10.84
2023-04-25T02:52:44.143Z,10.13
2023-04-25T02:55:36.171Z,11.02
2023-04-25T02:58:24.109Z,10.38
2023-04-25T03:01:11.464Z,11.48
2023-04-25T03:03:57.167Z,11.29
2023-04-25T03:06:43.752Z,11.54
2023-04-25T03:09:29.036Z,10.62
2023-04-25T03:12:17.443Z,11.57
2023-04-25T03:15:04.758Z,10.38
2023-04-25T03:17:50.391Z,11.53
2023-04-25T03:20:35.753Z,11.20
2023-04-25T03:23:22.690Z,11.62
2023-04-25T03:26:08.114Z,10.30
2023-04-25T03:28:53.523Z,10.41
2023-04-25T03:31:39.981Z,11.45
2023-04-25T03:34:25.466Z,11.48
2023-04-25T03:37:11.311Z,10.50
2023-04-25T03:39:57.980Z,11.21
2023-04-25T03:42:50.567Z,11.29
2023-04-25T03:45:37.493Z,10.08
2023-04-25T03:48:23.614Z,11.34
2023-04-25T03:51:09.215Z,11.15
2023-04-25T03:53:58.052Z,11.27
2023-04-25T03:56:49.763Z,11.23
2023-04-25T03:59:39.218Z,10.50
2023-04-25T04:02:26.131Z,10.77
2023-04-25T04:05:12.871Z,11.13
2023-04-25T04:08:06.326Z,10.87
2023-04-25T04:10:52.368Z,11.11
2023-04-25T04:13:38.452Z,10.29
2023-04-25T04:16:26.032Z,11.08
2023-04-25T04:19:12.029Z,10.53
2023-04-25T04:22:01.562Z,10.99
2023-04-25T04:24:47.450Z,11.09
2023-04-25T04:27:39.355Z,11.21
2023-04-25T04:30:40.302Z,11.09
2023-04-25T04:33:27.500Z,11.25
2023-04-25T04:36:20.883Z,11.24
2023-04-25T04:39:07.386Z,11.33
2023-04-25T04:42:15.890Z,10.15
2023-04-25T04:45:17.384Z,10.13
2023-04-25T04:48:24.051Z,9.53
2023-04-25T04:51:16.006Z,11.17
2023-04-25T04:54:09.931Z,10.93
2023-04-25T04:57:15.355Z,10.91
2023-04-25T05:00:36.026Z,10.91
2023-04-25T05:03:41.386Z,10.83
2023-04-25T05:06:53.135Z,10.77
2023-04-25T05:10:00.908Z,10.91
2023-04-25T05:13:03.828Z,10.03
2023-04-25T05:16:04.616Z,9.83
2023-04-25T05:19:08.914Z,11.09
2023-04-25T05:22:06.755Z,11.33
2023-04-25T05:24:58.314Z,11.15
2023-04-25T05:28:03.821Z,11.46
2023-04-25T05:31:28.367Z,11.54
2023-04-25T05:34:19.701Z,11.03
2023-04-25T05:37:13.643Z,11.01
2023-04-25T05:40:11.757Z,10.89
2023-04-25T05:43:15.578Z,10.60
2023-04-25T05:46:15.500Z,11.74
2023-04-25T05:49:21.839Z,11.68
2023-04-25T05:52:42.989Z,10.79
2023-04-25T05:55:48.470Z,11.55
2023-04-25T05:58:42.206Z,10.90
2023-04-25T06:01:30.145Z,12.01
2023-04-25T06:04:15.961Z,12.19
2023-04-25T06:07:01.848Z,12.10
2023-04-25T06:09:47.487Z,12.12
2023-04-25T06:12:34.281Z,11.40
2023-04-25T06:18:08.750Z,12.63
2023-04-25T06:20:54.719Z,12.69
2023-04-25T06:23:41.506Z,12.61
2023-04-25T06:26:30.289Z,12.67
2023-04-25T06:29:16.053Z,12.19
2023-04-25T06:32:02.089Z,12.85
2023-04-25T06:34:48.871Z,12.10
2023-04-25T06:37:34.603Z,13.16
2023-04-25T06:40:21.379Z,12.45
2023-04-25T06:43:06.832Z,13.41
2023-04-25T06:46:08.875Z,13.59
2023-04-25T06:49:01.605Z,13.39
2023-04-25T06:51:47.484Z,12.90
2023-04-25T06:54:33.269Z,13.69
2023-04-25T06:57:25.056Z,13.65
2023-04-25T07:00:11.907Z,13.84
2023-04-25T07:02:57.697Z,12.95
2023-04-25T07:05:43.406Z,12.74
2023-04-25T07:08:30.150Z,13.61
2023-04-25T07:11:17.343Z,13.21
2023-04-25T07:14:03.036Z,13.92
2023-04-25T07:16:48.817Z,13.33
2023-04-25T07:19:34.263Z,12.80
2023-04-25T07:22:21.229Z,13.60
2023-04-25T07:25:08.328Z,14.40
2023-04-25T07:27:54.156Z,14.81
2023-04-25T07:30:40.425Z,14.49
2023-04-25T07:33:26.126Z,15.05
2023-04-25T07:36:11.778Z,14.68
2023-04-25T07:38:58.686Z,15.23
2023-04-25T07:41:44.250Z,15.01
2023-04-25T07:44:41.016Z,15.88
2023-04-25T07:47:28.498Z,15.21
2023-04-25T07:50:13.893Z,16.43
2023-04-25T07:52:59.960Z,16.60
2023-04-25T07:55:52.231Z,16.55
2023-04-25T07:58:39.589Z,16.76
2023-04-25T08:01:28.081Z,15.85
2023-04-25T08:04:18.214Z,15.88
2023-04-25T08:07:17.725Z,16.80
2023-04-25T08:10:13.084Z,16.77
2023-04-25T08:12:58.725Z,16.48
2023-04-25T08:15:44.330Z,15.63
2023-04-25T08:18:29.737Z,16.34
2023-04-25T08:21:15.054Z,16.58
2023-04-25T08:24:02.575Z,16.53
2023-04-25T08:26:52.731Z,16.18
2023-04-25T08:29:40.613Z,16.52
2023-04-25T08:32:26.681Z,15.52
2023-04-25T08:35:30.324Z,16.90
2023-04-25T08:38:16.392Z,14.81
2023-04-25T08:41:03.202Z,16.90
2023-04-25T08:43:52.464Z,17.03
2023-04-25T08:46:42.349Z,17.31
2023-04-25T08:49:45.978Z,17.34
2023-04-25T08:52:41.053Z,16.94
2023-04-25T08:55:27.716Z,17.17
2023-04-25T08:58:19.656Z,16.37
2023-04-25T09:01:07.493Z,16.34
2023-04-25T09:04:01.322Z,17.11
2023-04-25T09:06:48.344Z,16.14
2023-04-25T09:09:34.512Z,17.18
2023-04-25T09:12:20.815Z,17.52
2023-04-25T09:15:20.370Z,17.66
2023-04-25T09:18:33.572Z,17.77
2023-04-25T09:21:23.984Z,16.79
2023-04-25T09:24:10.096Z,17.90
2023-04-25T09:26:55.507Z,17.21
2023-04-25T09:29:42.112Z,17.77
2023-04-25T09:32:30.150Z,18.22
2023-04-25T09:35:28.400Z,18.00
2023-04-25T09:38:19.531Z,17.10
2023-04-25T09:41:24.783Z,17.12
2023-04-25T09:44:14.294Z,17.19
2023-04-25T09:47:01.598Z,17.71
2023-04-25T09:49:49.159Z,17.52
2023-04-25T09:52:35.022Z,16.71
2023-04-25T09:55:35.639Z,17.63
2023-04-25T09:58:21.759Z,17.60
2023-04-25T10:01:10.012Z,16.78
2023-04-25T10:04:11.788Z,16.54
2023-04-25T10:07:22.098Z,17.64
2023-04-25T10:10:08.527Z,17.49
2023-04-25T10:12:55.089Z,17.00
2023-04-25T10:15:41.343Z,17.83
2023-04-25T10:18:28.570Z,17.76
2023-04-25T10:21:15.265Z,17.02
2023-04-25T10:24:01.662Z,17.96
2023-04-25T10:26:48.342Z,18.13
2023-04-25T10:29:33.830Z,18.03
2023-04-25T10:32:19.935Z,17.13
2023-04-25T10:35:19.339Z,17.79
2023-04-25T10:38:07.333Z,18.12
2023-04-25T10:41:09.406Z,17.92
2023-04-25T10:44:02.538Z,17.98
2023-04-25T10:46:48.374Z,17.00
2023-04-25T10:49:43.924Z,17.77
2023-04-25T10:52:30.781Z,18.02
2023-04-25T10:55:16.562Z,17.27
2023-04-25T10:58:03.371Z,17.74
2023-04-25T11:03:46.338Z,18.04
2023-04-25T11:06:53.714Z,18.08
2023-04-25T11:09:42.048Z,18.03
2023-04-25T11:12:27.714Z,17.64
2023-04-25T11:15:13.346Z,17.86
2023-04-25T11:17:59.035Z,18.04
2023-04-25T11:20:44.731Z,18.04
2023-04-25T11:23:31.320Z,17.94
2023-04-25T11:26:17.429Z,18.11
2023-04-25T11:29:03.922Z,17.05
2023-04-25T11:31:49.754Z,18.10
2023-04-25T11:34:35.600Z,17.15
2023-04-25T11:37:22.171Z,18.18
2023-04-25T11:40:09.775Z,18.12
2023-04-25T11:42:55.578Z,17.70
2023-04-25T11:45:41.185Z,18.17
2023-04-25T11:48:27.227Z,17.39
2023-04-25T11:51:12.840Z,17.06
2023-04-25T11:53:58.515Z,18.02
2023-04-25T11:56:47.405Z,18.07
2023-04-25T11:59:33.019Z,17.05
2023-04-25T12:02:26.837Z,17.48
2023-04-25T12:05:31.262Z,17.98
2023-04-25T12:08:18.107Z,17.01
2023-04-25T12:11:04.381Z,17.94
2023-04-25T12:13:54.305Z,16.84
2023-04-25T12:16:47.098Z,15.08
2023-04-25T12:19:37.890Z,17.60
2023-04-25T12:22:25.697Z,17.69
2023-04-25T12:25:35.067Z,16.54
2023-04-25T12:28:25.302Z,17.34
2023-04-25T12:31:11.185Z,17.61
2023-04-25T12:33:58.136Z,16.36
2023-04-25T12:36:43.413Z,17.46
2023-04-25T12:39:28.753Z,17.02
2023-04-25T12:42:14.433Z,17.30
2023-04-25T12:44:59.799Z,16.61
2023-04-25T12:47:46.152Z,17.55
2023-04-25T12:50:32.091Z,16.68
2023-04-25T12:53:19.138Z,16.45
2023-04-25T12:56:05.266Z,16.56
2023-04-25T12:58:51.446Z,17.32
2023-04-25T13:01:38.546Z,17.44
2023-04-25T13:04:24.569Z,17.29
2023-04-25T13:07:10.079Z,17.03
2023-04-25T13:09:55.685Z,16.98
2023-04-25T13:12:41.171Z,17.40
2023-04-25T13:15:27.011Z,17.40
2023-04-25T13:18:12.931Z,17.31
2023-04-25T13:20:59.487Z,17.29
2023-04-25T13:23:47.406Z,17.11
2023-04-25T13:26:33.459Z,17.32
2023-04-25T13:29:18.834Z,17.27
2023-04-25T13:32:04.648Z,17.23
2023-04-25T13:34:50.243Z,16.46
2023-04-25T13:37:35.648Z,16.41
2023-04-25T13:40:24.031Z,17.19
2023-04-25T13:43:11.187Z,16.08
2023-04-25T13:45:56.813Z,17.04
2023-04-25T13:48:47.270Z,16.80
2023-04-25T13:51:32.975Z,16.94
2023-04-25T13:54:18.301Z,16.70
2023-04-25T13:57:03.745Z,16.68
2023-04-25T13:59:49.138Z,16.91
2023-04-25T14:02:34.529Z,16.49
2023-04-25T14:05:20.329Z,15.90
2023-04-25T14:08:10.324Z,15.58
2023-04-25T14:10:56.267Z,16.50
2023-04-25T14:13:41.824Z,15.54
2023-04-25T14:16:27.414Z,16.18
2023-04-25T14:19:13.178Z,16.20
2023-04-25T14:21:58.644Z,15.21
2023-04-25T14:24:44.100Z,15.82
2023-04-25T14:27:29.447Z,15.65
2023-04-25T14:30:14.873Z,16.07
2023-04-25T14:33:00.663Z,15.98
2023-04-25T14:35:47.060Z,15.89
2023-04-25T14:38:32.689Z,15.06
2023-04-25T14:41:18.094Z,15.87
2023-04-25T14:44:03.717Z,15.75
2023-04-25T14:46:52.683Z,15.79
2023-04-25T14:49:38.126Z,15.55
2023-04-25T14:52:23.604Z,15.61
2023-04-25T14:55:09.521Z,15.68
2023-04-25T14:57:57.528Z,15.22
2023-04-25T15:00:44.597Z,15.56
2023-04-25T15:03:30.136Z,15.44
2023-04-25T15:06:18.472Z,15.37
2023-04-25T15:09:05.727Z,15.26
2023-04-25T15:11:51.976Z,15.13
2023-04-25T15:14:37.705Z,14.86
2023-04-25T15:17:23.447Z,15.01
2023-04-25T15:20:16.415Z,14.90
2023-04-25T15:23:04.505Z,14.75
2023-04-25T15:25:53.175Z,14.39
2023-04-25T15:28:40.239Z,13.73
2023-04-25T15:31:26.233Z,13.45
2023-04-25T15:34:12.287Z,12.50
2023-04-25T15:36:58.659Z,14.06
2023-04-25T15:39:45.252Z,13.75
2023-04-25T15:42:31.967Z,13.97
2023-04-25T15:45:21.586Z,13.72
2023-04-25T15:48:07.410Z,13.82
2023-04-25T15:50:52.771Z,12.55
2023-04-25T15:53:38.296Z,13.55
2023-04-25T15:56:24.258Z,13.47
2023-04-25T15:59:09.819Z,13.24
2023-04-25T16:01:55.330Z,13.41
2023-04-25T16:04:40.788Z,13.17
2023-04-25T16:07:26.839Z,12.19
2023-04-25T16:10:13.013Z,12.15
2023-04-25T16:12:58.956Z,12.07
2023-04-25T16:15:44.516Z,12.14
2023-04-25T16:18:29.967Z,13.09
2023-04-25T16:21:17.312Z,12.87
2023-04-25T16:24:02.951Z,11.92
2023-04-25T16:26:48.383Z,12.77
2023-04-25T16:29:33.894Z,12.68
2023-04-25T16:32:21.792Z,12.68
2023-04-25T16:35:09.701Z,12.54
2023-04-25T16:37:55.193Z,12.27
2023-04-25T16:40:40.776Z,12.45
2023-04-25T16:43:29.335Z,12.49
2023-04-25T16:46:14.946Z,12.45
2023-04-25T16:49:01.170Z,11.81
2023-04-25T16:51:47.157Z,11.67
2023-04-25T16:54:32.538Z,11.93
2023-04-25T16:57:18.080Z,11.88
2023-04-25T17:00:05.624Z,11.81
2023-04-25T17:02:52.378Z,12.21
2023-04-25T17:05:37.765Z,12.38
2023-04-25T17:08:26.110Z,11.29
2023-04-25T17:11:11.846Z,12.29
2023-04-25T17:13:57.745Z,12.15
2023-04-25T17:16:43.442Z,11.78
2023-04-25T17:19:30.392Z,12.36
2023-04-25T17:22:16.675Z,12.29
2023-04-25T17:25:02.233Z,11.34
2023-04-25T17:27:47.676Z,11.89
2023-04-25T17:30:34.471Z,10.91
2023-04-25T17:33:19.924Z,11.84
2023-04-25T17:36:07.206Z,11.22
2023-04-25T17:38:53.170Z,11.93
2023-04-25T17:41:39.027Z,10.90
2023-04-25T17:44:24.684Z,11.61
2023-04-25T17:47:11.564Z,11.97
2023-04-25T17:49:57.932Z,11.78
2023-04-25T17:52:45.528Z,11.85
2023-04-25T17:55:31.820Z,11.72
2023-04-25T17:58:17.610Z,11.70
2023-04-25T18:01:05.590Z,11.34
2023-04-25T18:03:51.695Z,10.59
2023-04-25T18:06:45.434Z,11.58
2023-04-25T18:09:34.497Z,11.40
2023-04-25T18:12:20.765Z,10.61
2023-04-25T18:15:07.204Z,9.97
2023-04-25T18:17:53.050Z,10.81
2023-04-25T18:20:39.729Z,11.37
2023-04-25T18:23:26.355Z,10.89
2023-04-25T18:26:12.258Z,11.24
2023-04-25T18:28:57.653Z,11.38
2023-04-25T18:31:44.020Z,11.17
2023-04-25T18:34:29.477Z,11.36
2023-04-25T18:37:18.090Z,11.40
2023-04-25T18:40:07.189Z,11.29
2023-04-25T18:42:53.230Z,11.30
2023-04-25T18:45:39.005Z,10.22
2023-04-25T18:48:24.527Z,11.19
2023-04-25T18:51:13.818Z,11.17
2023-04-25T18:54:02.400Z,11.09
2023-04-25T18:56:49.038Z,10.80
2023-04-25T18:59:35.595Z,10.89
2023-04-25T19:02:22.770Z,10.77
2023-04-25T19:05:10.361Z,9.39
2023-04-25T19:07:57.544Z,10.31
2023-04-25T19:10:44.475Z,10.49
2023-04-25T19:13:31.215Z,10.32
2023-04-25T19:16:19.436Z,10.26
2023-04-25T19:19:08.848Z,10.22
2023-04-25T19:21:54.802Z,8.79
2023-04-25T19:24:40.848Z,9.62
2023-04-25T19:27:26.677Z,10.08
2023-04-25T19:30:12.181Z,10.06
2023-04-25T19:32:57.990Z,10.09
2023-04-25T19:35:43.640Z,9.31
2023-04-25T19:38:29.114Z,10.02
2023-04-25T19:41:14.661Z,8.95
2023-04-25T19:44:04.758Z,9.39
2023-04-25T19:46:50.333Z,9.50
2023-04-25T19:49:36.147Z,9.61
2023-04-25T19:52:22.197Z,10.00
2023-04-25T19:55:08.532Z,9.25
2023-04-25T19:57:54.166Z,9.91
2023-04-25T20:00:39.823Z,9.56
2023-04-25T20:03:27.504Z,9.84
2023-04-25T20:06:13.493Z,9.87
2023-04-25T20:08:59.483Z,8.68
2023-04-25T20:11:45.313Z,9.79
2023-04-25T20:14:32.626Z,8.60
2023-04-25T20:17:22.978Z,9.76
2023-04-25T20:20:10.840Z,9.74
2023-04-25T20:22:56.341Z,8.91
2023-04-25T20:25:41.983Z,9.72
2023-04-25T20:28:27.915Z,9.67
2023-04-25T20:31:14.008Z,9.61
2023-04-25T20:34:00.962Z,9.55
2023-04-25T20:36:46.636Z,9.52
2023-04-25T20:39:33.370Z,9.43
2023-04-25T20:42:18.874Z,8.76
2023-04-25T20:45:07.607Z,9.10
2023-04-25T20:47:53.332Z,9.26
2023-04-25T20:50:38.533Z,8.75
2023-04-25T20:53:24.288Z,7.80
2023-04-25T20:56:10.967Z,9.07
2023-04-25T20:58:58.244Z,8.34
2023-04-25T21:01:44.108Z,8.85
2023-04-25T21:04:30.075Z,8.77
2023-04-25T21:07:16.128Z,7.55
2023-04-25T21:10:02.182Z,7.74
2023-04-25T21:12:53.321Z,9.05
2023-04-25T21:15:40.158Z,8.53
2023-04-25T21:18:26.984Z,8.52
2023-04-25T21:21:13.674Z,8.99
2023-04-25T21:23:59.668Z,8.74
2023-04-25T21:26:45.741Z,8.88
2023-04-25T21:29:31.349Z,7.66
2023-04-25T21:32:20.808Z,7.57
2023-04-25T21:35:07.997Z,8.50
2023-04-25T21:37:53.895Z,8.03
2023-04-25T21:40:40.568Z,8.81
2023-04-25T21:43:25.964Z,8.89
2023-04-25T21:46:23.010Z,8.73
2023-04-25T21:49:09.705Z,8.38
2023-04-25T21:51:56.782Z,8.37
2023-04-25T21:54:42.415Z,8.72
2023-04-25T21:57:27.776Z,8.26
2023-04-25T22:00:24.818Z,7.30
2023-04-25T22:03:10.449Z,8.20
2023-04-25T22:05:56.511Z,8.68
2023-04-25T22:08:43.177Z,8.63
2023-04-25T22:11:29.089Z,8.67
2023-04-25T22:14:14.828Z,8.65
2023-04-25T22:17:01.322Z,7.62
2023-04-25T22:19:47.126Z,8.50
2023-04-25T22:22:33.755Z,7.60
2023-04-25T22:25:19.572Z,8.55
2023-04-25T22:28:05.276Z,8.11
2023-04-25T22:30:51.064Z,8.45
2023-04-25T22:33:37.186Z,8.34
2023-04-25T22:36:23.984Z,8.22
2023-04-25T22:39:09.882Z,8.03
2023-04-25T22:41:55.365Z,8.27
2023-04-25T22:44:40.585Z,7.90
2023-04-25T22:47:27.503Z,7.23
2023-04-25T22:50:13.787Z,7.08
2023-04-25T22:52:59.288Z,7.81
2023-04-25T22:55:44.729Z,8.22
2023-04-25T22:58:30.028Z,6.90
2023-04-25T23:01:18.887Z,8.14
2023-04-25T23:04:05.549Z,8.04
2023-04-25T23:06:51.187Z,7.99
2023-04-25T23:09:36.822Z,8.10
2023-04-25T23:12:22.039Z,8.03
2023-04-25T23:15:08.461Z,7.07
2023-04-25T23:17:53.825Z,7.66
2023-04-25T23:20:39.190Z,7.70
2023-04-25T23:23:24.779Z,7.67
2023-04-25T23:26:10.897Z,7.97
2023-04-25T23:28:56.599Z,7.55
2023-04-25T23:31:42.325Z,7.84
2023-04-25T23:34:31.597Z,7.60
2023-04-25T23:37:17.161Z,6.73
2023-04-25T23:40:08.586Z,6.64
2023-04-25T23:42:54.067Z,6.77
2023-04-25T23:45:40.178Z,6.61
2023-04-25T23:48:25.854Z,7.87
2023-04-25T23:51:11.377Z,7.70
2023-04-25T23:53:56.838Z,6.76
2023-04-25T23:56:42.206Z,7.73
2023-04-25T23:59:28.670Z,7.73
